Time;durP1;ratioP1;P1;durP2;ratioP2;P2;SDS_P1;SDS_P2;PMS_P1;PMS_P2;Temp;Humidity;BMP_temperature;BMP_pressure;BME280_temperature;BME280_humidity;BME280_pressure;Samples;Min_cycle;Max_cycle;Signal;HPM_P1;HPM_P2
2021/11/11 00:01:12;;;;;;;33.40;29.70;;;1.60;99.90;;;;;;5086384;28;20452;-80
2021/11/11 00:03:39;;;;;;;37.60;30.90;;;1.60;99.90;;;;;;5088904;28;20451;-80
2021/11/11 00:06:06;;;;;;;35.53;29.53;;;1.60;99.90;;;;;;5083325;28;20443;-80
2021/11/11 00:08:33;;;;;;;35.53;30.80;;;1.60;99.90;;;;;;5088866;28;20524;-79
2021/11/11 00:11:00;;;;;;;35.77;29.53;;;1.50;99.90;;;;;;5081316;28;20448;-80
2021/11/11 00:13:27;;;;;;;33.90;30.20;;;1.50;99.90;;;;;;5086484;28;20810;-80
2021/11/11 00:15:55;;;;;;;34.30;29.73;;;1.50;99.90;;;;;;5087859;28;20488;-80
2021/11/11 00:18:22;;;;;;;37.00;30.53;;;1.50;99.90;;;;;;5075431;28;20481;-80
2021/11/11 00:20:51;;;;;;;36.07;30.53;;;1.40;99.90;;;;;;5079539;28;20483;-80
2021/11/11 00:23:18;;;;;;;35.27;28.70;;;1.40;99.90;;;;;;5085091;28;20441;-80
2021/11/11 00:25:44;;;;;;;33.87;30.13;;;1.30;99.90;;;;;;5094390;28;20530;-79
2021/11/11 00:28:11;;;;;;;39.73;32.03;;;1.30;99.90;;;;;;5079722;28;20469;-81
2021/11/11 00:30:38;;;;;;;37.57;30.97;;;1.30;99.90;;;;;;5087924;28;20473;-79
2021/11/11 00:33:06;;;;;;;38.53;32.07;;;1.30;99.90;;;;;;5081451;28;20831;-80
2021/11/11 00:35:33;;;;;;;35.23;30.83;;;1.30;99.90;;;;;;5079889;28;20441;-80
2021/11/11 00:38:01;;;;;;;34.30;29.37;;;1.20;99.90;;;;;;5081565;28;20543;-79
2021/11/11 00:40:30;;;;;;;33.30;29.83;;;1.20;99.90;;;;;;5080424;28;20504;-80
2021/11/11 00:42:58;;;;;;;34.90;31.40;;;1.20;99.90;;;;;;5088932;28;20443;-79
2021/11/11 00:45:25;;;;;;;32.60;29.20;;;1.20;99.90;;;;;;5086342;28;20850;-80
2021/11/11 00:47:54;;;;;;;35.57;30.00;;;1.10;99.90;;;;;;5084666;28;20470;-80
2021/11/11 00:50:26;;;;;;;33.67;29.97;;;1.10;99.90;;;;;;5086958;28;20467;-82
2021/11/11 00:52:53;;;;;;;34.03;29.90;;;1.10;99.90;;;;;;5082187;28;20444;-80
2021/11/11 00:55:20;;;;;;;35.10;29.80;;;1.10;99.90;;;;;;5080040;28;20507;-80
2021/11/11 00:57:52;;;;;;;31.20;27.97;;;1.10;99.90;;;;;;5081588;28;20431;-79
2021/11/11 01:00:22;;;;;;;30.80;27.53;;;1.20;99.90;;;;;;5079857;28;20510;-80
2021/11/11 01:02:51;;;;;;;29.57;26.67;;;1.20;99.90;;;;;;5084722;28;20498;-80
2021/11/11 01:05:19;;;;;;;31.33;28.07;;;1.20;99.90;;;;;;5088172;28;20583;-80
2021/11/11 01:07:47;;;;;;;32.43;28.93;;;1.10;99.90;;;;;;5087304;28;20996;-81
2021/11/11 01:10:17;;;;;;;31.27;27.90;;;1.10;99.90;;;;;;5087385;28;20460;-80
2021/11/11 01:12:45;;;;;;;31.03;26.63;;;1.10;99.90;;;;;;5091148;28;20437;-80
2021/11/11 01:15:15;;;;;;;30.67;27.47;;;1.20;99.90;;;;;;5084525;28;20445;-80
2021/11/11 01:17:42;;;;;;;30.90;27.77;;;1.20;99.90;;;;;;5082033;28;20482;-80
2021/11/11 01:20:10;;;;;;;31.17;28.03;;;1.20;99.90;;;;;;5077835;28;20468;-81
2021/11/11 01:22:38;;;;;;;30.87;27.53;;;1.10;99.90;;;;;;5082647;28;20505;-80
2021/11/11 01:25:09;;;;;;;32.50;29.27;;;1.10;99.90;;;;;;5080209;28;20509;-80
2021/11/11 01:27:36;;;;;;;29.27;26.17;;;1.00;99.90;;;;;;5082665;28;20467;-80
2021/11/11 01:30:06;;;;;;;28.43;25.53;;;1.00;99.90;;;;;;5081212;28;20478;-79
2021/11/11 01:32:35;;;;;;;30.37;26.87;;;1.00;99.90;;;;;;5084168;28;20929;-79
2021/11/11 01:35:04;;;;;;;30.63;27.03;;;1.20;99.90;;;;;;5084900;28;20428;-81
2021/11/11 01:37:32;;;;;;;29.07;26.10;;;1.30;99.90;;;;;;5084311;28;20463;-79
2021/11/11 01:39:58;;;;;;;29.50;26.43;;;1.30;99.90;;;;;;5079530;28;20552;-81
2021/11/11 01:42:27;;;;;;;28.47;25.60;;;1.30;99.90;;;;;;5084261;28;20449;-82
2021/11/11 01:44:56;;;;;;;33.33;28.63;;;1.30;99.90;;;;;;5080681;28;20970;-80
2021/11/11 01:47:36;;;;;;;28.93;26.13;;;1.30;99.90;;;;;;5085980;28;20576;-80
2021/11/11 01:50:05;;;;;;;30.10;26.90;;;1.20;99.90;;;;;;5079768;28;20474;-81
2021/11/11 01:52:35;;;;;;;29.17;25.97;;;1.20;99.90;;;;;;5079300;28;20477;-80
2021/11/11 01:55:04;;;;;;;30.23;27.23;;;1.20;99.90;;;;;;5092723;28;20456;-80
2021/11/11 01:57:33;;;;;;;30.23;27.20;;;1.10;99.90;;;;;;5085545;28;20868;-80
2021/11/11 02:00:11;;;;;;;30.67;27.30;;;1.00;99.90;;;;;;5091239;28;20474;-78
2021/11/11 02:02:46;;;;;;;28.77;26.07;;;1.00;99.90;;;;;;5090260;28;20453;-80
2021/11/11 02:05:35;;;;;;;32.23;27.00;;;1.00;99.90;;;;;;5090431;28;20446;-80
2021/11/11 02:08:02;;;;;;;29.37;26.43;;;0.90;99.90;;;;;;5092530;28;20478;-79
2021/11/11 02:10:30;;;;;;;31.30;27.87;;;0.90;99.90;;;;;;5095398;28;20844;-81
2021/11/11 02:12:58;;;;;;;28.93;25.70;;;0.90;99.90;;;;;;5092112;28;20505;-80
2021/11/11 02:15:25;;;;;;;29.47;26.37;;;0.90;99.90;;;;;;5088322;28;20444;-82
2021/11/11 02:17:55;;;;;;;28.27;25.37;;;0.90;99.90;;;;;;5091812;28;20445;-81
2021/11/11 02:20:26;;;;;;;29.23;26.00;;;0.90;99.90;;;;;;5087488;28;20507;-80
2021/11/11 02:23:15;;;;;;;28.33;25.60;;;0.90;99.90;;;;;;5085593;28;20489;-80
2021/11/11 02:26:06;;;;;;;33.63;26.87;;;0.90;99.90;;;;;;5091330;28;20826;-81
2021/11/11 02:28:53;;;;;;;27.73;25.13;;;1.00;99.90;;;;;;5084858;28;20475;-81
2021/11/11 02:35:14;;;;;;;27.97;25.00;;;1.00;99.90;;;;;;5084737;28;20446;-79
2021/11/11 02:37:47;;;;;;;30.53;26.43;;;0.90;99.90;;;;;;5091658;28;20448;-80
2021/11/11 02:40:33;;;;;;;29.33;26.13;;;0.90;99.90;;;;;;5088857;28;20476;-79
2021/11/11 02:43:00;;;;;;;29.27;26.33;;;0.90;99.90;;;;;;5093214;28;20844;-80
2021/11/11 02:45:33;;;;;;;29.47;26.40;;;0.80;99.90;;;;;;5090570;28;20448;-80
2021/11/11 02:48:06;;;;;;;28.50;25.60;;;0.80;99.90;;;;;;5081332;28;20464;-79
2021/11/11 02:50:40;;;;;;;30.30;27.30;;;0.80;99.90;;;;;;5088880;28;20471;-80
2021/11/11 02:53:09;;;;;;;28.53;25.73;;;0.80;99.90;;;;;;5086324;28;20829;-79
2021/11/11 02:55:38;;;;;;;28.43;25.43;;;0.80;99.90;;;;;;5089601;28;20451;-79
2021/11/11 02:58:07;;;;;;;28.37;25.57;;;0.70;99.90;;;;;;5087866;28;20451;-80
2021/11/11 03:00:42;;;;;;;30.13;27.07;;;0.80;99.90;;;;;;5087981;28;20480;-82
2021/11/11 03:03:12;;;;;;;29.40;25.93;;;0.80;99.90;;;;;;5089604;28;20453;-80
2021/11/11 03:05:40;;;;;;;29.80;26.27;;;0.80;99.90;;;;;;5091359;28;20455;-81
2021/11/11 03:08:12;;;;;;;30.23;27.30;;;0.80;99.90;;;;;;5088659;28;20511;-79
2021/11/11 03:10:47;;;;;;;28.80;25.87;;;0.80;99.90;;;;;;5086512;28;20820;-79
2021/11/11 03:13:16;;;;;;;29.60;26.43;;;0.80;99.90;;;;;;5085605;28;20957;-79
2021/11/11 03:15:44;;;;;;;30.43;26.93;;;0.80;99.90;;;;;;5081882;28;20446;-80
2021/11/11 03:18:12;;;;;;;29.70;26.57;;;0.70;99.90;;;;;;5081851;28;20457;-79
2021/11/11 03:20:40;;;;;;;29.90;26.70;;;0.70;99.90;;;;;;5092838;28;20571;-80
2021/11/11 03:23:08;;;;;;;32.60;25.60;;;0.70;99.90;;;;;;5089864;28;20445;-80
2021/11/11 03:25:37;;;;;;;31.77;28.40;;;0.70;99.90;;;;;;5092993;28;20493;-80
2021/11/11 03:28:06;;;;;;;31.27;27.90;;;0.80;99.90;;;;;;5087585;28;20457;-80
2021/11/11 03:30:35;;;;;;;31.10;27.70;;;1.00;99.90;;;;;;5083310;28;20518;-80
2021/11/11 03:33:04;;;;;;;32.87;29.30;;;1.10;99.90;;;;;;5084015;28;20449;-81
2021/11/11 03:35:37;;;;;;;36.17;29.37;;;1.10;99.90;;;;;;5084004;28;20551;-80
2021/11/11 03:38:08;;;;;;;29.80;26.60;;;1.20;99.90;;;;;;5089584;28;20444;-80
2021/11/11 03:40:39;;;;;;;31.23;27.57;;;1.20;99.90;;;;;;5092970;28;20482;-79
2021/11/11 03:43:07;;;;;;;29.00;26.30;;;1.10;99.90;;;;;;5086293;28;20536;-78
2021/11/11 03:45:41;;;;;;;30.10;27.30;;;1.00;99.90;;;;;;5089485;28;20453;-77
2021/11/11 03:48:09;;;;;;;29.00;26.10;;;0.90;99.90;;;;;;5092301;28;20476;-79
2021/11/11 03:50:37;;;;;;;29.20;26.10;;;0.90;99.90;;;;;;5079407;28;20487;-78
2021/11/11 03:53:09;;;;;;;28.93;26.07;;;0.90;99.90;;;;;;5085296;28;20971;-78
2021/11/11 03:55:38;;;;;;;28.10;25.37;;;0.90;99.90;;;;;;5091171;28;20489;-78
2021/11/11 03:58:11;;;;;;;30.83;26.77;;;0.90;99.90;;;;;;5091709;28;20490;-78
2021/11/11 04:00:38;;;;;;;30.87;27.23;;;0.80;99.90;;;;;;5085565;28;20558;-77
2021/11/11 04:03:05;;;;;;;28.97;25.73;;;0.80;99.90;;;;;;5084795;28;20432;-79
2021/11/11 04:05:34;;;;;;;29.53;26.47;;;0.80;99.90;;;;;;5085938;28;20444;-78
2021/11/11 04:08:01;;;;;;;30.83;27.67;;;0.70;99.90;;;;;;5090476;28;20475;-78
2021/11/11 04:10:28;;;;;;;36.27;27.77;;;0.70;99.90;;;;;;5086372;28;20518;-79
2021/11/11 04:13:06;;;;;;;35.60;27.53;;;0.70;99.90;;;;;;5092332;28;20456;-77
2021/11/11 04:15:33;;;;;;;28.10;25.40;;;0.70;99.90;;;;;;5081783;28;20514;-79
2021/11/11 04:18:00;;;;;;;29.17;26.27;;;0.80;99.90;;;;;;5085032;28;20471;-79
2021/11/11 04:20:28;;;;;;;31.90;28.50;;;0.80;99.90;;;;;;5092928;28;20882;-79
2021/11/11 04:22:55;;;;;;;29.83;26.53;;;0.80;99.90;;;;;;5087122;28;20466;-78
2021/11/11 04:25:28;;;;;;;31.20;27.90;;;0.80;99.90;;;;;;5091737;28;20479;-80
2021/11/11 04:28:01;;;;;;;29.83;26.70;;;0.90;99.90;;;;;;5081703;28;20451;-81
2021/11/11 04:30:31;;;;;;;29.33;26.50;;;0.90;99.90;;;;;;5086795;28;20900;-81
2021/11/11 04:33:01;;;;;;;35.80;27.23;;;0.90;99.90;;;;;;5087562;28;20972;-81
2021/11/11 04:35:29;;;;;;;28.13;25.23;;;0.90;99.90;;;;;;5086189;28;20464;-81
2021/11/11 04:38:08;;;;;;;28.80;26.03;;;0.90;99.90;;;;;;5089837;28;20527;-80
2021/11/11 04:41:05;;;;;;;27.00;24.30;;;0.90;99.90;;;;;;5090612;28;20471;-82
2021/11/11 04:43:54;;;;;;;28.17;25.30;;;1.00;99.90;;;;;;5085309;28;20532;-81
2021/11/11 04:46:43;;;;;;;27.80;24.93;;;1.00;99.90;;;;;;5088298;28;20477;-81
2021/11/11 04:49:34;;;;;;;28.70;25.70;;;1.10;99.90;;;;;;5208075;22;20778;-80
2021/11/11 05:00:34;;;;;;;31.13;28.17;;;1.00;99.90;;;;;;5060867;28;20487;-80
2021/11/11 05:03:12;;;;;;;30.10;26.73;;;0.90;99.90;;;;;;5051444;28;20943;-80
2021/11/11 05:05:40;;;;;;;27.70;25.00;;;0.90;99.90;;;;;;5061890;28;20488;-80
2021/11/11 05:08:08;;;;;;;27.70;24.87;;;0.90;99.90;;;;;;5067428;28;20473;-80
2021/11/11 05:10:37;;;;;;;27.97;25.27;;;1.00;99.90;;;;;;5058524;28;20958;-80
2021/11/11 05:13:05;;;;;;;27.60;25.00;;;1.00;99.90;;;;;;5059556;28;20446;-80
2021/11/11 05:15:33;;;;;;;27.90;25.37;;;1.00;99.90;;;;;;5060522;28;20450;-80
2021/11/11 05:18:02;;;;;;;27.80;25.10;;;1.00;99.90;;;;;;5058901;28;20488;-80
2021/11/11 05:20:33;;;;;;;26.97;24.37;;;1.00;99.90;;;;;;5056123;28;20505;-80
2021/11/11 05:23:00;;;;;;;27.37;24.67;;;1.00;99.90;;;;;;5059035;28;20457;-80
2021/11/11 05:25:27;;;;;;;27.20;24.50;;;1.00;99.90;;;;;;5059219;28;20452;-79
2021/11/11 05:27:55;;;;;;;26.63;24.13;;;0.90;99.90;;;;;;5055517;28;20939;-80
2021/11/11 05:30:25;;;;;;;29.30;26.40;;;0.80;99.90;;;;;;5062509;28;20558;-80
2021/11/11 05:32:53;;;;;;;28.33;25.60;;;0.80;99.90;;;;;;5059627;28;20445;-80
2021/11/11 05:35:24;;;;;;;27.10;24.57;;;0.70;99.90;;;;;;5066222;28;20457;-80
2021/11/11 05:37:52;;;;;;;28.07;25.60;;;0.70;99.90;;;;;;5053885;28;20519;-80
2021/11/11 05:40:20;;;;;;;28.87;25.83;;;0.70;99.90;;;;;;5060886;28;20474;-80
2021/11/11 05:42:49;;;;;;;28.40;25.60;;;0.70;99.90;;;;;;5064513;28;20529;-79
2021/11/11 05:45:16;;;;;;;26.10;23.77;;;0.70;99.90;;;;;;5063041;28;20488;-80
2021/11/11 05:47:44;;;;;;;27.67;24.70;;;0.70;99.90;;;;;;5056340;28;20965;-80
2021/11/11 05:50:13;;;;;;;30.60;27.37;;;0.70;99.90;;;;;;5060916;28;20472;-80
2021/11/11 05:52:42;;;;;;;27.83;25.27;;;0.80;99.90;;;;;;5063912;28;20555;-80
2021/11/11 05:55:10;;;;;;;26.57;24.07;;;0.80;99.90;;;;;;5063944;28;20444;-80
2021/11/11 05:57:38;;;;;;;25.93;23.67;;;0.80;99.90;;;;;;5060718;28;20457;-81
2021/11/11 06:00:08;;;;;;;27.47;24.87;;;0.90;99.90;;;;;;5062847;28;20478;-80
2021/11/11 06:02:43;;;;;;;28.87;26.23;;;0.90;99.90;;;;;;5065797;28;20438;-80
2021/11/11 06:05:12;;;;;;;30.63;27.77;;;0.80;99.90;;;;;;5064209;28;20493;-80
2021/11/11 06:07:42;;;;;;;32.33;29.17;;;0.80;99.90;;;;;;5064449;28;20478;-80
2021/11/11 06:10:10;;;;;;;31.17;27.97;;;0.80;99.90;;;;;;5063048;28;20477;-80
2021/11/11 06:12:37;;;;;;;29.57;26.67;;;0.80;99.90;;;;;;5063831;28;20868;-80
2021/11/11 06:15:05;;;;;;;28.83;26.17;;;0.80;99.90;;;;;;5060380;28;20460;-81
2021/11/11 06:17:32;;;;;;;32.63;26.17;;;0.80;99.90;;;;;;5057666;28;20449;-80
2021/11/11 06:20:00;;;;;;;27.23;24.77;;;0.80;99.90;;;;;;5065500;28;21008;-80
2021/11/11 06:22:29;;;;;;;27.77;25.20;;;0.80;99.90;;;;;;5060497;28;20450;-80
2021/11/11 06:24:57;;;;;;;29.40;26.50;;;0.80;99.90;;;;;;5061653;28;20458;-79
2021/11/11 06:27:24;;;;;;;29.53;26.77;;;0.90;99.90;;;;;;5063177;28;20524;-80
2021/11/11 06:29:52;;;;;;;28.53;26.07;;;0.90;99.90;;;;;;5055098;28;20994;-80
2021/11/11 06:32:19;;;;;;;29.80;26.87;;;1.00;99.90;;;;;;5062712;28;20961;-80
2021/11/11 06:34:46;;;;;;;28.50;25.90;;;1.00;99.90;;;;;;5067266;28;20450;-80
2021/11/11 06:37:13;;;;;;;29.53;26.73;;;1.10;99.90;;;;;;5054734;28;20868;-80
2021/11/11 06:39:39;;;;;;;27.67;25.07;;;1.10;99.90;;;;;;5064779;28;20474;-80
2021/11/11 06:42:08;;;;;;;28.57;25.90;;;1.20;99.90;;;;;;5061491;28;21007;-80
2021/11/11 06:44:35;;;;;;;28.60;25.70;;;1.10;99.90;;;;;;5062020;28;20836;-80
2021/11/11 06:47:02;;;;;;;27.47;25.03;;;1.00;99.90;;;;;;5062789;28;20446;-80
2021/11/11 06:49:29;;;;;;;28.20;25.60;;;1.00;99.90;;;;;;5063130;28;20505;-80
2021/11/11 06:51:56;;;;;;;29.20;26.43;;;1.00;99.90;;;;;;5062951;28;20442;-80
2021/11/11 06:54:22;;;;;;;29.53;26.83;;;1.10;99.90;;;;;;5065956;28;20470;-80
2021/11/11 06:56:49;;;;;;;29.70;26.97;;;1.20;99.90;;;;;;5057991;28;20469;-81
2021/11/11 06:59:18;;;;;;;28.73;25.97;;;1.20;99.90;;;;;;5061537;28;20472;-79
2021/11/11 07:01:45;;;;;;;28.70;25.90;;;1.40;99.90;;;;;;5067796;28;20511;-81
2021/11/11 07:04:12;;;;;;;29.40;26.63;;;1.40;99.90;;;;;;5063814;28;20464;-81
2021/11/11 07:06:38;;;;;;;29.40;26.77;;;1.40;99.90;;;;;;5066729;28;20449;-81
2021/11/11 07:09:05;;;;;;;30.30;27.23;;;1.50;99.90;;;;;;5066052;28;20484;-81
2021/11/11 07:11:32;;;;;;;29.17;26.37;;;1.50;99.90;;;;;;5062156;28;20430;-81
2021/11/11 07:13:59;;;;;;;28.97;26.10;;;1.50;99.90;;;;;;5063754;28;20984;-81
2021/11/11 07:16:27;;;;;;;28.87;25.87;;;1.70;99.90;;;;;;5064535;28;20436;-80
2021/11/11 07:18:55;;;;;;;29.17;26.17;;;1.70;99.90;;;;;;5062788;28;20525;-80
2021/11/11 07:21:22;;;;;;;28.33;25.60;;;1.80;99.90;;;;;;5062551;28;20524;-81
2021/11/11 07:23:49;;;;;;;28.17;25.37;;;1.80;99.90;;;;;;5058833;28;20488;-80
2021/11/11 07:26:16;;;;;;;28.53;25.70;;;1.90;99.90;;;;;;5066720;28;20437;-80
2021/11/11 07:28:43;;;;;;;29.37;26.47;;;1.90;99.90;;;;;;5059914;28;20860;-80
2021/11/11 07:31:10;;;;;;;30.13;27.13;;;2.00;99.90;;;;;;5061753;28;20470;-80
2021/11/11 07:33:39;;;;;;;28.97;26.17;;;2.20;99.90;;;;;;5062892;28;20459;-80
2021/11/11 07:36:06;;;;;;;28.53;25.93;;;2.20;99.90;;;;;;5064194;28;20448;-80
2021/11/11 07:38:33;;;;;;;30.50;26.40;;;2.30;99.90;;;;;;5061546;28;20536;-80
2021/11/11 07:41:00;;;;;;;28.70;25.90;;;2.40;99.90;;;;;;5058849;28;20518;-80
2021/11/11 07:43:27;;;;;;;28.40;25.50;;;2.60;99.90;;;;;;5060952;28;20456;-81
2021/11/11 07:45:54;;;;;;;28.17;25.57;;;2.60;99.90;;;;;;5064302;28;20445;-80
2021/11/11 07:48:22;;;;;;;28.20;25.70;;;2.60;99.90;;;;;;5061325;28;20438;-81
2021/11/11 07:50:51;;;;;;;26.40;24.13;;;2.70;99.90;;;;;;5062207;28;20576;-80
2021/11/11 07:53:18;;;;;;;25.93;23.67;;;2.90;99.90;;;;;;5060838;28;20436;-81
2021/11/11 07:55:45;;;;;;;27.37;24.77;;;3.10;99.90;;;;;;5056397;28;20933;-80
2021/11/11 07:58:12;;;;;;;26.00;23.50;;;3.30;99.90;;;;;;5063291;28;20452;-80
2021/11/11 08:00:40;;;;;;;26.27;23.90;;;3.60;99.90;;;;;;5063323;28;20468;-80
2021/11/11 08:03:07;;;;;;;26.07;23.67;;;3.90;99.90;;;;;;5062296;28;20483;-80
2021/11/11 08:05:34;;;;;;;25.53;23.43;;;4.20;99.90;;;;;;5064785;28;20439;-80
2021/11/11 08:08:02;;;;;;;26.00;23.60;;;4.40;99.90;;;;;;5060961;28;20433;-81
2021/11/11 08:10:29;;;;;;;22.40;20.30;;;4.80;99.90;;;;;;5055952;28;20481;-80
2021/11/11 08:12:56;;;;;;;20.47;18.67;;;4.90;99.90;;;;;;5062962;28;20202;-80
2021/11/11 08:15:23;;;;;;;15.23;12.13;;;5.10;99.90;;;;;;5062718;28;20551;-80
2021/11/11 08:17:50;;;;;;;13.97;11.67;;;5.40;99.90;;;;;;5070614;28;20569;-81
2021/11/11 08:20:17;;;;;;;15.93;14.30;;;5.90;99.90;;;;;;5073358;28;20695;-80
2021/11/11 08:22:47;;;;;;;12.60;11.23;;;6.10;99.90;;;;;;5074291;28;20194;-80
2021/11/11 08:25:17;;;;;;;16.37;11.77;;;6.20;99.90;;;;;;5064627;28;20216;-80
2021/11/11 08:27:44;;;;;;;18.97;17.17;;;6.20;99.90;;;;;;5061856;28;20198;-81
2021/11/11 08:30:14;;;;;;;23.97;21.90;;;6.50;99.90;;;;;;5061079;28;20832;-80
2021/11/11 08:32:42;;;;;;;22.60;20.63;;;6.70;99.90;;;;;;5056476;28;20215;-80
2021/11/11 08:35:09;;;;;;;15.93;12.40;;;6.90;99.90;;;;;;5057876;28;20224;-81
2021/11/11 08:37:36;;;;;;;21.90;19.90;;;7.00;99.90;;;;;;5064112;28;20206;-83
2021/11/11 08:40:05;;;;;;;17.57;15.97;;;7.20;99.90;;;;;;5066516;28;20235;-80
2021/11/11 08:42:33;;;;;;;22.23;20.53;;;7.20;99.90;;;;;;5060612;28;20249;-80
2021/11/11 08:45:02;;;;;;;20.30;18.53;;;7.30;99.90;;;;;;5061213;28;20207;-80
2021/11/11 08:47:30;;;;;;;19.27;17.57;;;7.10;99.90;;;;;;5060690;28;20283;-81
2021/11/11 08:49:58;;;;;;;15.80;14.17;;;7.20;99.90;;;;;;5059052;28;20221;-81
2021/11/11 08:52:26;;;;;;;14.60;13.10;;;7.20;99.90;;;;;;5052946;28;20226;-80
2021/11/11 08:54:53;;;;;;;14.77;12.20;;;7.20;99.90;;;;;;5063930;28;20218;-80
2021/11/11 08:57:20;;;;;;;14.70;10.63;;;7.20;99.90;;;;;;5058886;28;20201;-81
2021/11/11 08:59:53;;;;;;;21.60;19.73;;;7.20;99.90;;;;;;5057412;28;20221;-81
2021/11/11 09:02:20;;;;;;;21.30;19.40;;;7.10;99.90;;;;;;5063218;28;20210;-81
2021/11/11 09:04:48;;;;;;;23.67;21.77;;;7.20;99.90;;;;;;5059211;28;20235;-80
2021/11/11 09:07:16;;;;;;;20.80;18.90;;;7.20;99.90;;;;;;5069919;28;20322;-81
2021/11/11 09:09:44;;;;;;;21.50;19.70;;;7.10;99.90;;;;;;5061244;28;20667;-81
2021/11/11 09:12:11;;;;;;;20.70;18.73;;;7.10;99.90;;;;;;5064669;28;20229;-81
2021/11/11 09:14:38;;;;;;;16.80;15.17;;;7.10;99.90;;;;;;5069937;28;20203;-80
2021/11/11 09:17:06;;;;;;;16.67;15.00;;;7.00;99.90;;;;;;5071363;28;20642;-81
2021/11/11 09:19:34;;;;;;;16.17;14.57;;;6.90;99.90;;;;;;5071849;28;20220;-81
2021/11/11 09:22:01;;;;;;;19.97;18.27;;;6.90;99.90;;;;;;5068075;28;20203;-80
2021/11/11 09:24:28;;;;;;;18.10;16.40;;;6.90;99.90;;;;;;5071068;28;20189;-81
2021/11/11 09:26:54;;;;;;;15.60;12.83;;;7.00;99.90;;;;;;5072610;28;20202;-81
2021/11/11 09:29:22;;;;;;;24.23;21.83;;;6.90;99.90;;;;;;5072596;28;20263;-81
2021/11/11 09:31:49;;;;;;;19.90;18.00;;;6.90;99.90;;;;;;5073185;28;20221;-80
2021/11/11 09:34:18;;;;;;;22.87;20.97;;;6.90;99.90;;;;;;5066893;28;20203;-81
2021/11/11 09:36:44;;;;;;;22.00;20.00;;;6.90;99.90;;;;;;5067005;28;20895;-81
2021/11/11 09:39:11;;;;;;;21.07;19.30;;;7.00;99.90;;;;;;5070075;28;20231;-81
2021/11/11 09:41:40;;;;;;;20.67;18.87;;;7.10;99.90;;;;;;5059713;28;20197;-81
2021/11/11 09:44:08;;;;;;;20.73;19.03;;;7.20;99.90;;;;;;5067511;28;20254;-81
2021/11/11 09:46:35;;;;;;;20.47;18.87;;;7.20;99.90;;;;;;5065379;28;20196;-81
2021/11/11 09:49:02;;;;;;;21.27;19.27;;;7.30;99.90;;;;;;5066836;28;20197;-81
2021/11/11 09:51:32;;;;;;;22.57;20.57;;;7.30;99.90;;;;;;5066555;28;20575;-81
2021/11/11 09:54:06;;;;;;;20.50;18.80;;;7.30;99.90;;;;;;5065319;28;20233;-81
2021/11/11 09:59:19;;;;;;;19.77;17.97;;;7.50;99.90;;;;;;5078917;28;20227;-81
2021/11/11 10:01:46;;;;;;;19.77;18.17;;;7.50;99.90;;;;;;5072084;28;20205;-81
2021/11/11 10:04:13;;;;;;;20.50;18.77;;;7.60;99.90;;;;;;5071286;28;20197;-81
2021/11/11 10:06:42;;;;;;;21.30;19.50;;;7.60;99.90;;;;;;5069036;28;20211;-81
2021/11/11 10:09:14;;;;;;;20.33;18.50;;;7.60;99.90;;;;;;5065383;28;20197;-81
2021/11/11 10:11:50;;;;;;;20.90;19.00;;;7.60;99.90;;;;;;5070052;28;20255;-81
2021/11/11 10:14:20;;;;;;;20.20;18.60;;;7.70;99.90;;;;;;5064896;28;20206;-81
2021/11/11 10:16:49;;;;;;;19.60;18.00;;;7.80;99.90;;;;;;5063673;28;20256;-81
2021/11/11 10:19:17;;;;;;;21.17;19.27;;;7.90;99.90;;;;;;5058016;28;20214;-82
2021/11/11 10:21:49;;;;;;;21.73;19.83;;;7.90;99.90;;;;;;5065133;28;20251;-81
2021/11/11 10:24:34;;;;;;;23.13;21.00;;;7.90;99.90;;;;;;5065061;28;20281;-81
2021/11/11 10:27:12;;;;;;;22.03;19.93;;;7.90;99.90;;;;;;5060973;28;20575;-81
2021/11/11 10:29:47;;;;;;;23.30;21.23;;;7.80;99.90;;;;;;5063886;28;20272;-81
2021/11/11 10:32:17;;;;;;;23.17;21.13;;;7.80;99.90;;;;;;5061446;28;20200;-81
2021/11/11 10:34:52;;;;;;;23.00;20.80;;;7.70;99.90;;;;;;5058136;28;20204;-81
2021/11/11 10:37:23;;;;;;;23.37;21.17;;;7.70;99.90;;;;;;5066876;28;20216;-81
2021/11/11 10:40:00;;;;;;;22.87;20.77;;;7.60;99.90;;;;;;5053699;28;20219;-81
2021/11/11 10:42:29;;;;;;;23.63;21.33;;;7.70;99.90;;;;;;5061324;28;20723;-81
2021/11/11 10:44:58;;;;;;;24.53;22.17;;;7.70;99.90;;;;;;5064388;28;20209;-81
2021/11/11 10:47:31;;;;;;;24.43;22.13;;;7.80;99.90;;;;;;5062105;28;20631;-81
2021/11/11 10:49:58;;;;;;;23.20;21.20;;;7.80;99.90;;;;;;5103014;22;20355;-81
2021/11/11 10:52:36;;;;;;;23.17;21.07;;;7.70;99.90;;;;;;5100715;28;20196;-79
2021/11/11 10:55:08;;;;;;;25.00;22.37;;;7.80;99.90;;;;;;5092780;28;20619;-79
2021/11/11 10:57:39;;;;;;;25.03;22.73;;;7.80;99.90;;;;;;5091639;28;20254;-80
2021/11/11 11:00:23;;;;;;;26.20;23.57;;;7.90;99.90;;;;;;5101034;28;20230;-82
2021/11/11 11:03:07;;;;;;;25.33;23.03;;;8.00;99.90;;;;;;5098656;28;20264;-81
2021/11/11 11:05:37;;;;;;;23.30;21.10;;;8.10;99.90;;;;;;5084964;28;20215;-80
2021/11/11 11:08:10;;;;;;;24.63;22.33;;;8.20;99.90;;;;;;5101194;28;20230;-81
2021/11/11 11:10:39;;;;;;;24.63;22.33;;;8.20;99.90;;;;;;5101058;28;20227;-80
2021/11/11 11:13:12;;;;;;;24.33;22.10;;;8.30;99.90;;;;;;5102558;28;20668;-80
2021/11/11 11:15:55;;;;;;;26.47;23.73;;;8.30;99.90;;;;;;5097774;28;20208;-80
2021/11/11 11:18:25;;;;;;;24.70;22.23;;;8.30;99.90;;;;;;5096937;28;20206;-80
2021/11/11 11:20:56;;;;;;;24.60;22.30;;;8.30;99.90;;;;;;5083960;28;20265;-80
2021/11/11 11:23:33;;;;;;;22.97;20.87;;;8.40;99.90;;;;;;5091912;28;20281;-81
2021/11/11 11:26:13;;;;;;;25.60;22.80;;;8.40;99.90;;;;;;5091047;28;20200;-82
2021/11/11 11:28:50;;;;;;;26.50;23.63;;;8.50;99.90;;;;;;5099705;28;20212;-81
2021/11/11 11:31:27;;;;;;;26.67;23.53;;;8.60;99.90;;;;;;5096408;28;20237;-81
2021/11/11 11:33:54;;;;;;;24.73;22.47;;;8.60;99.90;;;;;;5086448;28;20204;-80
2021/11/11 11:36:37;;;;;;;26.10;23.63;;;8.70;99.90;;;;;;5096577;28;20198;-81
2021/11/11 11:39:06;;;;;;;25.00;22.57;;;8.70;99.90;;;;;;5085708;28;20292;-81
2021/11/11 11:41:36;;;;;;;24.90;22.43;;;8.70;99.90;;;;;;5103457;28;20433;-81
2021/11/11 11:44:28;;;;;;;24.60;22.40;;;8.80;99.90;;;;;;5101717;28;20200;-80
2021/11/11 11:47:05;;;;;;;27.70;24.93;;;8.80;99.90;;;;;;5093603;28;20201;-82
2021/11/11 11:49:33;;;;;;;27.17;24.33;;;8.90;99.90;;;;;;5099694;28;20727;-80
2021/11/11 11:52:00;;;;;;;27.00;24.17;;;9.00;99.90;;;;;;5099470;28;20224;-80
2021/11/11 11:54:37;;;;;;;25.53;23.27;;;9.00;99.90;;;;;;5093762;28;20674;-80
2021/11/11 11:57:12;;;;;;;27.13;24.27;;;9.10;99.90;;;;;;5099751;28;20203;-81
2021/11/11 11:59:45;;;;;;;25.80;23.40;;;9.10;99.90;;;;;;5102307;28;20226;-81
2021/11/11 12:05:06;;;;;;;27.03;24.20;;;9.10;99.90;;;;;;5093261;28;20201;-81
2021/11/11 12:07:52;;;;;;;26.47;23.83;;;9.20;99.90;;;;;;5094634;28;20196;-80
2021/11/11 12:10:26;;;;;;;28.63;25.73;;;9.20;99.90;;;;;;5092096;28;20220;-81
2021/11/11 12:13:22;;;;;;;26.63;24.03;;;9.20;99.90;;;;;;5094122;28;20282;-81
2021/11/11 12:16:06;;;;;;;27.77;24.80;;;9.20;99.90;;;;;;5098997;28;20259;-81
2021/11/11 12:38:34;;;;;;;29.40;26.30;;;9.50;99.90;;;;;;5094674;28;20189;-81
2021/11/11 12:41:06;;;;;;;29.40;26.20;;;9.50;99.90;;;;;;5091058;28;20639;-80
2021/11/11 12:43:34;;;;;;;27.23;24.47;;;9.50;99.90;;;;;;5095091;28;20217;-79
2021/11/11 12:46:01;;;;;;;26.13;23.50;;;9.60;99.90;;;;;;5097237;28;20195;-81
2021/11/11 12:48:30;;;;;;;26.10;23.60;;;9.60;99.90;;;;;;5093347;28;20588;-81
2021/11/11 12:51:06;;;;;;;28.23;25.53;;;9.60;99.90;;;;;;5100722;28;20304;-81
2021/11/11 12:53:52;;;;;;;29.17;26.37;;;9.70;99.90;;;;;;5100809;28;20192;-81
2021/11/11 12:56:33;;;;;;;29.33;24.70;;;9.70;99.90;;;;;;5092646;28;20198;-81
2021/11/11 12:59:14;;;;;;;29.50;26.60;;;9.70;99.90;;;;;;5090767;28;20209;-81
2021/11/11 13:01:57;;;;;;;29.07;26.07;;;9.80;99.90;;;;;;5094178;28;20213;-80
2021/11/11 13:04:25;;;;;;;27.27;24.67;;;9.70;99.90;;;;;;5099180;28;20189;-81
2021/11/11 13:06:54;;;;;;;29.07;24.90;;;9.80;99.90;;;;;;5087970;28;20220;-81
2021/11/11 13:09:37;;;;;;;21.10;18.63;;;9.80;99.90;;;;;;5100364;28;20757;-81
2021/11/11 13:12:16;;;;;;;23.83;19.37;;;9.80;99.90;;;;;;5087947;28;20217;-82
2021/11/11 13:15:02;;;;;;;22.50;19.27;;;9.80;99.90;;;;;;5097547;28;20202;-81
2021/11/11 13:17:37;;;;;;;26.83;21.23;;;9.80;99.90;;;;;;5097764;28;20198;-81
2021/11/11 13:20:26;;;;;;;25.03;20.87;;;9.80;99.90;;;;;;5096314;28;20244;-81
2021/11/11 13:23:00;;;;;;;26.03;20.53;;;9.80;99.90;;;;;;5089850;28;20243;-80
2021/11/11 13:25:49;;;;;;;20.80;18.60;;;9.80;99.90;;;;;;5099258;28;20197;-80
2021/11/11 13:54:56;;;;;;;25.40;22.77;;;9.90;99.90;;;;;;5099622;28;20659;-81
2021/11/11 15:04:13;;;;;;;28.60;25.83;;;9.50;99.90;;;;;;5104988;28;20224;-81